sensor_id;sensor_type;location;lat;lon;timestamp;temperature;humidity
35700;DHT22;21818;51.078;12.108;2023-03-29T00:00:19;9.40;66.90
35700;DHT22;21818;51.078;12.108;2023-03-29T00:02:45;9.50;66.90
35700;DHT22;21818;51.078;12.108;2023-03-29T00:05:13;9.50;66.80
35700;DHT22;21818;51.078;12.108;2023-03-29T00:07:39;9.60;66.90
35700;DHT22;21818;51.078;12.108;2023-03-29T00:10:07;9.70;66.50
35700;DHT22;21818;51.078;12.108;2023-03-29T00:12:35;9.80;66.30
35700;DHT22;21818;51.078;12.108;2023-03-29T00:15:02;9.90;66.30
35700;DHT22;21818;51.078;12.108;2023-03-29T00:17:28;9.90;66.20
35700;DHT22;21818;51.078;12.108;2023-03-29T00:19:53;10.00;66.10
35700;DHT22;21818;51.078;12.108;2023-03-29T00:22:19;9.90;66.00
35700;DHT22;21818;51.078;12.108;2023-03-29T00:24:45;9.90;66.20
35700;DHT22;21818;51.078;12.108;2023-03-29T00:27:14;10.00;66.20
35700;DHT22;21818;51.078;12.108;2023-03-29T00:29:39;10.00;66.10
35700;DHT22;21818;51.078;12.108;2023-03-29T00:32:05;9.90;66.00
35700;DHT22;21818;51.078;12.108;2023-03-29T00:34:31;9.80;66.10
35700;DHT22;21818;51.078;12.108;2023-03-29T00:36:57;9.80;66.20
35700;DHT22;21818;51.078;12.108;2023-03-29T00:39:24;9.90;66.20
35700;DHT22;21818;51.078;12.108;2023-03-29T00:41:50;9.90;66.00
35700;DHT22;21818;51.078;12.108;2023-03-29T00:47:24;9.80;66.10
35700;DHT22;21818;51.078;12.108;2023-03-29T00:49:50;9.70;66.30
35700;DHT22;21818;51.078;12.108;2023-03-29T00:52:18;9.70;66.50
35700;DHT22;21818;51.078;12.108;2023-03-29T00:54:47;9.80;66.20
35700;DHT22;21818;51.078;12.108;2023-03-29T00:57:17;9.90;66.20
35700;DHT22;21818;51.078;12.108;2023-03-29T00:59:45;9.90;66.20
35700;DHT22;21818;51.078;12.108;2023-03-29T01:02:14;9.90;66.20
35700;DHT22;21818;51.078;12.108;2023-03-29T01:04:48;9.90;66.10
35700;DHT22;21818;51.078;12.108;2023-03-29T01:07:42;9.70;66.30
35700;DHT22;21818;51.078;12.108;2023-03-29T01:10:16;9.60;66.60
35700;DHT22;21818;51.078;12.108;2023-03-29T01:12:50;9.50;66.90
35700;DHT22;21818;51.078;12.108;2023-03-29T01:15:23;9.50;67.00
35700;DHT22;21818;51.078;12.108;2023-03-29T01:17:51;9.50;67.00
35700;DHT22;21818;51.078;12.108;2023-03-29T01:31:55;9.90;66.90
35700;DHT22;21818;51.078;12.108;2023-03-29T01:34:29;9.90;67.10
35700;DHT22;21818;51.078;12.108;2023-03-29T01:37:17;10.00;67.20
35700;DHT22;21818;51.078;12.108;2023-03-29T01:39:45;10.00;67.10
35700;DHT22;21818;51.078;12.108;2023-03-29T01:42:30;10.10;67.20
35700;DHT22;21818;51.078;12.108;2023-03-29T01:45:08;10.10;66.60
35700;DHT22;21818;51.078;12.108;2023-03-29T01:47:53;10.20;66.40
35700;DHT22;21818;51.078;12.108;2023-03-29T01:52:59;10.20;66.30
35700;DHT22;21818;51.078;12.108;2023-03-29T01:55:31;10.20;66.20
35700;DHT22;21818;51.078;12.108;2023-03-29T01:57:59;10.20;66.20
35700;DHT22;21818;51.078;12.108;2023-03-29T02:00:27;10.10;66.20
35700;DHT22;21818;51.078;12.108;2023-03-29T02:02:56;10.20;66.30
35700;DHT22;21818;51.078;12.108;2023-03-29T02:05:26;10.20;66.00
35700;DHT22;21818;51.078;12.108;2023-03-29T02:07:53;10.20;66.00
35700;DHT22;21818;51.078;12.108;2023-03-29T02:10:22;10.10;66.10
35700;DHT22;21818;51.078;12.108;2023-03-29T02:12:48;10.10;66.10
35700;DHT22;21818;51.078;12.108;2023-03-29T02:15:17;10.20;66.10
35700;DHT22;21818;51.078;12.108;2023-03-29T02:17:43;10.10;66.00
35700;DHT22;21818;51.078;12.108;2023-03-29T02:20:17;10.10;66.00
35700;DHT22;21818;51.078;12.108;2023-03-29T02:22:50;10.10;66.10
35700;DHT22;21818;51.078;12.108;2023-03-29T02:25:19;10.10;66.00
35700;DHT22;21818;51.078;12.108;2023-03-29T02:27:47;10.20;66.00
35700;DHT22;21818;51.078;12.108;2023-03-29T02:30:15;10.30;65.90
35700;DHT22;21818;51.078;12.108;2023-03-29T02:35:20;10.20;65.80
35700;DHT22;21818;51.078;12.108;2023-03-29T02:37:51;10.10;65.90
35700;DHT22;21818;51.078;12.108;2023-03-29T02:40:20;10.10;65.90
35700;DHT22;21818;51.078;12.108;2023-03-29T02:42:47;10.10;65.90
35700;DHT22;21818;51.078;12.108;2023-03-29T02:45:15;10.10;65.80
35700;DHT22;21818;51.078;12.108;2023-03-29T02:47:47;10.10;65.80
35700;DHT22;21818;51.078;12.108;2023-03-29T02:50:14;9.90;66.00
35700;DHT22;21818;51.078;12.108;2023-03-29T02:52:51;9.70;66.20
35700;DHT22;21818;51.078;12.108;2023-03-29T02:55:18;9.60;66.50
35700;DHT22;21818;51.078;12.108;2023-03-29T02:57:45;9.60;66.60
35700;DHT22;21818;51.078;12.108;2023-03-29T03:00:11;9.60;66.60
35700;DHT22;21818;51.078;12.108;2023-03-29T03:02:39;9.60;66.50
35700;DHT22;21818;51.078;12.108;2023-03-29T03:05:05;9.60;66.40
35700;DHT22;21818;51.078;12.108;2023-03-29T03:07:30;9.60;66.50
35700;DHT22;21818;51.078;12.108;2023-03-29T03:09:58;9.50;66.50
35700;DHT22;21818;51.078;12.108;2023-03-29T03:12:23;9.50;66.50
35700;DHT22;21818;51.078;12.108;2023-03-29T03:14:49;9.50;66.60
35700;DHT22;21818;51.078;12.108;2023-03-29T03:17:14;9.50;66.70
35700;DHT22;21818;51.078;12.108;2023-03-29T03:19:40;9.40;66.70
35700;DHT22;21818;51.078;12.108;2023-03-29T03:22:06;9.40;66.80
35700;DHT22;21818;51.078;12.108;2023-03-29T03:24:32;9.40;66.80
35700;DHT22;21818;51.078;12.108;2023-03-29T03:26:57;9.40;66.80
35700;DHT22;21818;51.078;12.108;2023-03-29T03:29:24;9.40;66.70
35700;DHT22;21818;51.078;12.108;2023-03-29T03:31:50;9.40;66.70
35700;DHT22;21818;51.078;12.108;2023-03-29T03:34:17;9.40;66.60
35700;DHT22;21818;51.078;12.108;2023-03-29T03:36:43;9.50;66.50
35700;DHT22;21818;51.078;12.108;2023-03-29T03:39:12;9.50;66.50
35700;DHT22;21818;51.078;12.108;2023-03-29T03:41:37;9.50;66.50
35700;DHT22;21818;51.078;12.108;2023-03-29T03:44:03;9.50;66.50
35700;DHT22;21818;51.078;12.108;2023-03-29T03:46:29;9.50;66.50
35700;DHT22;21818;51.078;12.108;2023-03-29T03:48:54;9.50;66.50
35700;DHT22;21818;51.078;12.108;2023-03-29T03:51:20;9.60;66.50
35700;DHT22;21818;51.078;12.108;2023-03-29T03:53:46;9.70;66.40
35700;DHT22;21818;51.078;12.108;2023-03-29T03:56:12;9.70;66.40
35700;DHT22;21818;51.078;12.108;2023-03-29T03:58:38;9.80;66.50
35700;DHT22;21818;51.078;12.108;2023-03-29T04:01:05;9.80;66.50
35700;DHT22;21818;51.078;12.108;2023-03-29T04:03:32;9.70;66.60
35700;DHT22;21818;51.078;12.108;2023-03-29T04:05:59;9.70;66.70
35700;DHT22;21818;51.078;12.108;2023-03-29T04:08:25;9.80;66.80
35700;DHT22;21818;51.078;12.108;2023-03-29T04:10:52;9.80;66.80
35700;DHT22;21818;51.078;12.108;2023-03-29T04:13:18;9.70;66.90
35700;DHT22;21818;51.078;12.108;2023-03-29T04:15:43;9.70;67.00
35700;DHT22;21818;51.078;12.108;2023-03-29T04:18:10;9.70;67.10
35700;DHT22;21818;51.078;12.108;2023-03-29T04:20:37;9.80;67.20
35700;DHT22;21818;51.078;12.108;2023-03-29T04:23:02;9.80;67.30
35700;DHT22;21818;51.078;12.108;2023-03-29T04:25:28;9.80;67.40
35700;DHT22;21818;51.078;12.108;2023-03-29T04:27:54;9.80;67.20
35700;DHT22;21818;51.078;12.108;2023-03-29T04:30:20;9.90;67.30
35700;DHT22;21818;51.078;12.108;2023-03-29T04:32:46;10.00;67.40
35700;DHT22;21818;51.078;12.108;2023-03-29T04:35:12;10.00;67.20
35700;DHT22;21818;51.078;12.108;2023-03-29T04:37:37;10.10;67.20
35700;DHT22;21818;51.078;12.108;2023-03-29T04:40:05;10.10;67.20
35700;DHT22;21818;51.078;12.108;2023-03-29T04:42:33;10.00;67.30
35700;DHT22;21818;51.078;12.108;2023-03-29T04:44:59;10.00;67.40
35700;DHT22;21818;51.078;12.108;2023-03-29T04:47:25;10.00;67.40
35700;DHT22;21818;51.078;12.108;2023-03-29T04:49:54;10.10;67.60
35700;DHT22;21818;51.078;12.108;2023-03-29T04:52:19;10.00;67.70
35700;DHT22;21818;51.078;12.108;2023-03-29T04:54:45;10.00;68.00
35700;DHT22;21818;51.078;12.108;2023-03-29T04:57:11;10.10;68.00
35700;DHT22;21818;51.078;12.108;2023-03-29T04:59:36;10.10;68.00
35700;DHT22;21818;51.078;12.108;2023-03-29T05:02:02;10.10;68.00
35700;DHT22;21818;51.078;12.108;2023-03-29T05:04:29;10.20;68.20
35700;DHT22;21818;51.078;12.108;2023-03-29T05:06:56;10.10;68.40
35700;DHT22;21818;51.078;12.108;2023-03-29T05:09:22;10.20;68.50
35700;DHT22;21818;51.078;12.108;2023-03-29T05:11:48;10.30;68.40
35700;DHT22;21818;51.078;12.108;2023-03-29T05:14:14;10.40;68.20
35700;DHT22;21818;51.078;12.108;2023-03-29T05:16:40;10.40;68.10
35700;DHT22;21818;51.078;12.108;2023-03-29T05:19:06;10.30;68.20
35700;DHT22;21818;51.078;12.108;2023-03-29T05:21:34;10.30;68.50
35700;DHT22;21818;51.078;12.108;2023-03-29T05:24:00;10.30;68.70
35700;DHT22;21818;51.078;12.108;2023-03-29T05:26:26;10.30;68.80
35700;DHT22;21818;51.078;12.108;2023-03-29T05:28:52;10.40;68.70
35700;DHT22;21818;51.078;12.108;2023-03-29T05:31:18;10.40;68.80
35700;DHT22;21818;51.078;12.108;2023-03-29T05:33:46;10.40;68.80
35700;DHT22;21818;51.078;12.108;2023-03-29T05:36:14;10.40;69.00
35700;DHT22;21818;51.078;12.108;2023-03-29T05:38:42;10.60;68.90
35700;DHT22;21818;51.078;12.108;2023-03-29T05:41:14;10.50;68.90
35700;DHT22;21818;51.078;12.108;2023-03-29T05:43:40;10.60;69.10
35700;DHT22;21818;51.078;12.108;2023-03-29T05:46:06;10.80;68.90
35700;DHT22;21818;51.078;12.108;2023-03-29T05:48:32;11.00;68.40
35700;DHT22;21818;51.078;12.108;2023-03-29T05:50:58;11.10;68.30
35700;DHT22;21818;51.078;12.108;2023-03-29T05:53:25;11.20;68.10
35700;DHT22;21818;51.078;12.108;2023-03-29T05:55:51;11.30;67.90
35700;DHT22;21818;51.078;12.108;2023-03-29T05:58:17;11.40;68.00
35700;DHT22;21818;51.078;12.108;2023-03-29T06:00:44;11.60;67.70
35700;DHT22;21818;51.078;12.108;2023-03-29T06:03:15;11.60;67.60
35700;DHT22;21818;51.078;12.108;2023-03-29T06:05:45;11.60;67.50
35700;DHT22;21818;51.078;12.108;2023-03-29T06:08:11;11.70;67.50
35700;DHT22;21818;51.078;12.108;2023-03-29T06:10:37;11.70;67.50
35700;DHT22;21818;51.078;12.108;2023-03-29T06:13:02;11.70;67.40
35700;DHT22;21818;51.078;12.108;2023-03-29T06:15:28;11.70;67.40
35700;DHT22;21818;51.078;12.108;2023-03-29T06:17:54;11.70;67.50
35700;DHT22;21818;51.078;12.108;2023-03-29T06:20:19;11.60;67.60
35700;DHT22;21818;51.078;12.108;2023-03-29T06:22:45;11.60;67.90
35700;DHT22;21818;51.078;12.108;2023-03-29T06:25:12;11.80;67.80
35700;DHT22;21818;51.078;12.108;2023-03-29T06:27:39;12.10;67.30
35700;DHT22;21818;51.078;12.108;2023-03-29T06:30:05;12.30;66.70
35700;DHT22;21818;51.078;12.108;2023-03-29T06:32:33;12.50;66.40
35700;DHT22;21818;51.078;12.108;2023-03-29T06:34:59;12.60;66.20
35700;DHT22;21818;51.078;12.108;2023-03-29T06:37:24;12.60;65.90
35700;DHT22;21818;51.078;12.108;2023-03-29T06:39:50;12.70;65.90
35700;DHT22;21818;51.078;12.108;2023-03-29T06:42:20;12.80;65.80
35700;DHT22;21818;51.078;12.108;2023-03-29T06:44:46;12.80;65.70
35700;DHT22;21818;51.078;12.108;2023-03-29T06:47:13;12.80;65.60
35700;DHT22;21818;51.078;12.108;2023-03-29T06:49:38;12.90;65.60
35700;DHT22;21818;51.078;12.108;2023-03-29T06:52:04;12.90;65.50
35700;DHT22;21818;51.078;12.108;2023-03-29T06:54:30;12.90;65.40
35700;DHT22;21818;51.078;12.108;2023-03-29T06:56:58;13.00;65.50
35700;DHT22;21818;51.078;12.108;2023-03-29T06:59:24;13.00;65.40
35700;DHT22;21818;51.078;12.108;2023-03-29T07:01:50;13.00;65.30
35700;DHT22;21818;51.078;12.108;2023-03-29T07:04:18;13.00;65.30
35700;DHT22;21818;51.078;12.108;2023-03-29T07:06:44;13.00;65.30
35700;DHT22;21818;51.078;12.108;2023-03-29T07:09:13;13.00;65.20
35700;DHT22;21818;51.078;12.108;2023-03-29T07:11:41;13.10;65.30
35700;DHT22;21818;51.078;12.108;2023-03-29T07:14:07;13.00;65.20
35700;DHT22;21818;51.078;12.108;2023-03-29T07:16:33;13.00;65.20
35700;DHT22;21818;51.078;12.108;2023-03-29T07:19:02;13.00;65.20
35700;DHT22;21818;51.078;12.108;2023-03-29T07:21:28;13.00;65.40
35700;DHT22;21818;51.078;12.108;2023-03-29T07:23:54;12.90;65.50
35700;DHT22;21818;51.078;12.108;2023-03-29T07:26:21;12.90;66.10
35700;DHT22;21818;51.078;12.108;2023-03-29T07:28:47;12.90;65.70
35700;DHT22;21818;51.078;12.108;2023-03-29T07:31:13;12.90;65.70
35700;DHT22;21818;51.078;12.108;2023-03-29T07:33:40;12.90;65.60
35700;DHT22;21818;51.078;12.108;2023-03-29T07:36:06;12.90;65.50
35700;DHT22;21818;51.078;12.108;2023-03-29T07:38:32;13.00;65.50
35700;DHT22;21818;51.078;12.108;2023-03-29T07:40:58;13.00;65.30
35700;DHT22;21818;51.078;12.108;2023-03-29T07:43:24;13.00;65.30
35700;DHT22;21818;51.078;12.108;2023-03-29T07:45:50;13.00;65.40
35700;DHT22;21818;51.078;12.108;2023-03-29T07:48:17;12.90;65.40
35700;DHT22;21818;51.078;12.108;2023-03-29T07:50:43;12.90;65.50
35700;DHT22;21818;51.078;12.108;2023-03-29T07:53:09;13.00;65.50
35700;DHT22;21818;51.078;12.108;2023-03-29T07:55:35;13.00;65.40
35700;DHT22;21818;51.078;12.108;2023-03-29T07:58:00;13.10;65.30
35700;DHT22;21818;51.078;12.108;2023-03-29T08:00:26;13.10;65.20
35700;DHT22;21818;51.078;12.108;2023-03-29T08:02:52;13.10;65.10
35700;DHT22;21818;51.078;12.108;2023-03-29T08:05:19;13.10;65.20
35700;DHT22;21818;51.078;12.108;2023-03-29T08:07:46;13.10;65.30
35700;DHT22;21818;51.078;12.108;2023-03-29T08:10:15;13.10;65.30
35700;DHT22;21818;51.078;12.108;2023-03-29T08:12:41;13.00;65.20
35700;DHT22;21818;51.078;12.108;2023-03-29T08:15:07;13.10;65.20
35700;DHT22;21818;51.078;12.108;2023-03-29T08:17:34;13.10;65.20
35700;DHT22;21818;51.078;12.108;2023-03-29T08:20:01;13.10;65.20
35700;DHT22;21818;51.078;12.108;2023-03-29T08:22:27;13.10;65.20
35700;DHT22;21818;51.078;12.108;2023-03-29T08:24:53;13.10;65.20
35700;DHT22;21818;51.078;12.108;2023-03-29T08:27:19;13.10;65.20
35700;DHT22;21818;51.078;12.108;2023-03-29T08:29:45;13.10;65.30
35700;DHT22;21818;51.078;12.108;2023-03-29T08:32:11;13.10;65.30
35700;DHT22;21818;51.078;12.108;2023-03-29T08:34:36;13.00;65.30
35700;DHT22;21818;51.078;12.108;2023-03-29T08:37:03;13.00;65.40
35700;DHT22;21818;51.078;12.108;2023-03-29T08:39:29;13.10;65.40
35700;DHT22;21818;51.078;12.108;2023-03-29T08:50:17;13.30;64.70
35700;DHT22;21818;51.078;12.108;2023-03-29T08:52:50;13.40;64.70
35700;DHT22;21818;51.078;12.108;2023-03-29T08:55:34;13.40;64.70
35700;DHT22;21818;51.078;12.108;2023-03-29T08:58:03;13.40;64.50
35700;DHT22;21818;51.078;12.108;2023-03-29T09:00:47;13.40;64.70
35700;DHT22;21818;51.078;12.108;2023-03-29T09:03:30;13.40;64.70
35700;DHT22;21818;51.078;12.108;2023-03-29T09:06:05;13.40;64.50
35700;DHT22;21818;51.078;12.108;2023-03-29T09:08:50;13.40;64.50
35700;DHT22;21818;51.078;12.108;2023-03-29T09:14:12;13.50;64.50
35700;DHT22;21818;51.078;12.108;2023-03-29T09:19:33;13.50;64.40
35700;DHT22;21818;51.078;12.108;2023-03-29T09:28:02;13.40;64.70
35700;DHT22;21818;51.078;12.108;2023-03-29T09:30:38;13.40;64.70
35700;DHT22;21818;51.078;12.108;2023-03-29T09:33:24;13.40;64.50
35700;DHT22;21818;51.078;12.108;2023-03-29T09:36:23;13.50;64.50
35700;DHT22;21818;51.078;12.108;2023-03-29T09:38:50;13.60;64.40
35700;DHT22;21818;51.078;12.108;2023-03-29T09:41:41;13.70;64.30
35700;DHT22;21818;51.078;12.108;2023-03-29T09:44:20;13.70;64.20
35700;DHT22;21818;51.078;12.108;2023-03-29T09:46:55;13.70;64.10
35700;DHT22;21818;51.078;12.108;2023-03-29T09:49:29;13.70;64.00
35700;DHT22;21818;51.078;12.108;2023-03-29T09:52:00;13.80;64.00
35700;DHT22;21818;51.078;12.108;2023-03-29T09:54:28;13.80;64.00
35700;DHT22;21818;51.078;12.108;2023-03-29T09:56:54;13.80;64.00
35700;DHT22;21818;51.078;12.108;2023-03-29T09:59:20;13.80;64.00
35700;DHT22;21818;51.078;12.108;2023-03-29T10:01:45;13.80;64.00
35700;DHT22;21818;51.078;12.108;2023-03-29T10:04:12;13.80;63.90
35700;DHT22;21818;51.078;12.108;2023-03-29T10:06:48;13.80;63.90
35700;DHT22;21818;51.078;12.108;2023-03-29T10:09:20;13.80;63.80
35700;DHT22;21818;51.078;12.108;2023-03-29T10:11:50;13.90;63.90
35700;DHT22;21818;51.078;12.108;2023-03-29T10:14:19;13.90;63.80
35700;DHT22;21818;51.078;12.108;2023-03-29T10:16:54;13.90;63.70
35700;DHT22;21818;51.078;12.108;2023-03-29T10:21:49;14.00;63.60
35700;DHT22;21818;51.078;12.108;2023-03-29T10:24:24;14.00;63.60
35700;DHT22;21818;51.078;12.108;2023-03-29T10:27:01;13.90;63.60
35700;DHT22;21818;51.078;12.108;2023-03-29T10:29:37;13.90;63.70
35700;DHT22;21818;51.078;12.108;2023-03-29T10:34:49;13.90;63.70
35700;DHT22;21818;51.078;12.108;2023-03-29T10:37:16;13.90;63.80
35700;DHT22;21818;51.078;12.108;2023-03-29T10:39:44;13.90;63.80
35700;DHT22;21818;51.078;12.108;2023-03-29T10:42:18;14.00;63.80
35700;DHT22;21818;51.078;12.108;2023-03-29T10:44:55;13.90;63.60
35700;DHT22;21818;51.078;12.108;2023-03-29T10:47:21;13.90;63.60
35700;DHT22;21818;51.078;12.108;2023-03-29T10:49:55;14.00;64.10
35700;DHT22;21818;51.078;12.108;2023-03-29T10:52:21;14.00;63.50
35700;DHT22;21818;51.078;12.108;2023-03-29T10:54:50;14.00;63.50
35700;DHT22;21818;51.078;12.108;2023-03-29T11:00:05;14.00;63.40
35700;DHT22;21818;51.078;12.108;2023-03-29T11:02:52;14.00;63.40
35700;DHT22;21818;51.078;12.108;2023-03-29T11:05:47;14.10;63.30
35700;DHT22;21818;51.078;12.108;2023-03-29T11:13:46;14.20;63.00
35700;DHT22;21818;51.078;12.108;2023-03-29T11:19:04;14.30;62.70
35700;DHT22;21818;51.078;12.108;2023-03-29T11:41:02;14.50;62.50
35700;DHT22;21818;51.078;12.108;2023-03-29T11:46:11;14.50;62.40
35700;DHT22;21818;51.078;12.108;2023-03-29T11:48:44;14.50;62.30
35700;DHT22;21818;51.078;12.108;2023-03-29T12:02:57;14.60;62.40
35700;DHT22;21818;51.078;12.108;2023-03-29T12:11:06;14.80;62.00
35700;DHT22;21818;51.078;12.108;2023-03-29T12:13:36;14.90;61.90
35700;DHT22;21818;51.078;12.108;2023-03-29T12:16:30;14.90;61.70
35700;DHT22;21818;51.078;12.108;2023-03-29T12:19:03;15.10;61.50
35700;DHT22;21818;51.078;12.108;2023-03-29T12:21:31;15.30;61.20
35700;DHT22;21818;51.078;12.108;2023-03-29T12:23:58;15.70;60.60
35700;DHT22;21818;51.078;12.108;2023-03-29T12:32:47;15.90;60.00
35700;DHT22;21818;51.078;12.108;2023-03-29T12:35:29;15.90;59.90
35700;DHT22;21818;51.078;12.108;2023-03-29T12:38:10;16.40;59.20
35700;DHT22;21818;51.078;12.108;2023-03-29T12:40:41;16.70;58.60
35700;DHT22;21818;51.078;12.108;2023-03-29T12:43:18;16.70;59.00
35700;DHT22;21818;51.078;12.108;2023-03-29T12:45:45;16.60;58.70
35700;DHT22;21818;51.078;12.108;2023-03-29T12:48:18;16.30;59.20
35700;DHT22;21818;51.078;12.108;2023-03-29T12:50:49;16.00;59.60
35700;DHT22;21818;51.078;12.108;2023-03-29T12:53:36;15.80;60.00
35700;DHT22;21818;51.078;12.108;2023-03-29T13:03:56;15.50;60.70
35700;DHT22;21818;51.078;12.108;2023-03-29T13:06:54;15.50;60.70
35700;DHT22;21818;51.078;12.108;2023-03-29T13:09:29;15.60;60.60
35700;DHT22;21818;51.078;12.108;2023-03-29T13:12:03;15.70;60.50
35700;DHT22;21818;51.078;12.108;2023-03-29T13:14:33;15.70;60.50
35700;DHT22;21818;51.078;12.108;2023-03-29T13:17:04;15.70;60.50
35700;DHT22;21818;51.078;12.108;2023-03-29T13:19:39;15.70;60.50
35700;DHT22;21818;51.078;12.108;2023-03-29T13:25:38;16.00;60.30
35700;DHT22;21818;51.078;12.108;2023-03-29T13:29:07;16.70;59.60
35700;DHT22;21818;51.078;12.108;2023-03-29T13:34:03;17.40;58.50
35700;DHT22;21818;51.078;12.108;2023-03-29T13:39:18;17.60;58.20
35700;DHT22;21818;51.078;12.108;2023-03-29T13:41:50;17.50;58.30
35700;DHT22;21818;51.078;12.108;2023-03-29T13:44:24;17.40;58.30
35700;DHT22;21818;51.078;12.108;2023-03-29T13:47:02;17.30;58.40
35700;DHT22;21818;51.078;12.108;2023-03-29T13:49:30;17.30;58.40
35700;DHT22;21818;51.078;12.108;2023-03-29T13:52:04;17.20;58.50
35700;DHT22;21818;51.078;12.108;2023-03-29T13:54:49;17.10;58.60
35700;DHT22;21818;51.078;12.108;2023-03-29T13:57:19;17.00;58.60
35700;DHT22;21818;51.078;12.108;2023-03-29T14:00:14;16.90;58.80
35700;DHT22;21818;51.078;12.108;2023-03-29T14:02:54;16.80;58.70
35700;DHT22;21818;51.078;12.108;2023-03-29T14:05:32;16.70;58.90
35700;DHT22;21818;51.078;12.108;2023-03-29T14:10:52;16.60;59.00
35700;DHT22;21818;51.078;12.108;2023-03-29T14:13:20;16.60;59.10
35700;DHT22;21818;51.078;12.108;2023-03-29T14:15:59;16.60;59.00
35700;DHT22;21818;51.078;12.108;2023-03-29T14:18:32;16.60;58.80
35700;DHT22;21818;51.078;12.108;2023-03-29T14:20:59;16.60;58.90
35700;DHT22;21818;51.078;12.108;2023-03-29T14:23:31;16.60;59.00
35700;DHT22;21818;51.078;12.108;2023-03-29T14:26:17;16.50;59.00
35700;DHT22;21818;51.078;12.108;2023-03-29T14:28:54;16.40;59.20
35700;DHT22;21818;51.078;12.108;2023-03-29T14:31:29;16.30;59.30
35700;DHT22;21818;51.078;12.108;2023-03-29T14:33:57;16.20;59.50
35700;DHT22;21818;51.078;12.108;2023-03-29T14:36:24;16.20;59.60
35700;DHT22;21818;51.078;12.108;2023-03-29T14:38:52;16.20;59.60
35700;DHT22;21818;51.078;12.108;2023-03-29T14:41:18;16.20;59.70
35700;DHT22;21818;51.078;12.108;2023-03-29T14:43:45;16.20;59.60
35700;DHT22;21818;51.078;12.108;2023-03-29T14:46:14;16.30;59.60
35700;DHT22;21818;51.078;12.108;2023-03-29T14:48:42;16.40;59.50
35700;DHT22;21818;51.078;12.108;2023-03-29T14:51:08;16.50;59.30
35700;DHT22;21818;51.078;12.108;2023-03-29T14:53:35;16.50;59.20
35700;DHT22;21818;51.078;12.108;2023-03-29T14:56:03;16.50;59.30
35700;DHT22;21818;51.078;12.108;2023-03-29T14:58:34;16.40;59.30
35700;DHT22;21818;51.078;12.108;2023-03-29T15:01:26;16.40;59.50
35700;DHT22;21818;51.078;12.108;2023-03-29T15:03:56;16.30;59.60
35700;DHT22;21818;51.078;12.108;2023-03-29T15:06:27;16.20;59.70
35700;DHT22;21818;51.078;12.108;2023-03-29T15:08:54;16.20;59.70
35700;DHT22;21818;51.078;12.108;2023-03-29T15:11:23;16.20;59.80
35700;DHT22;21818;51.078;12.108;2023-03-29T15:13:59;16.10;59.70
35700;DHT22;21818;51.078;12.108;2023-03-29T15:16:26;16.30;59.70
35700;DHT22;21818;51.078;12.108;2023-03-29T15:18:54;16.40;59.50
35700;DHT22;21818;51.078;12.108;2023-03-29T15:21:21;16.60;59.30
35700;DHT22;21818;51.078;12.108;2023-03-29T15:23:53;16.70;59.00
35700;DHT22;21818;51.078;12.108;2023-03-29T15:26:20;16.80;58.90
35700;DHT22;21818;51.078;12.108;2023-03-29T15:29:00;16.70;59.10
35700;DHT22;21818;51.078;12.108;2023-03-29T15:31:36;16.60;59.30
35700;DHT22;21818;51.078;12.108;2023-03-29T15:34:09;16.40;59.40
35700;DHT22;21818;51.078;12.108;2023-03-29T15:36:47;16.30;59.70
35700;DHT22;21818;51.078;12.108;2023-03-29T15:39:15;16.20;59.80
35700;DHT22;21818;51.078;12.108;2023-03-29T15:41:41;16.20;60.00
35700;DHT22;21818;51.078;12.108;2023-03-29T15:44:08;16.10;60.00
35700;DHT22;21818;51.078;12.108;2023-03-29T15:46:34;16.10;60.10
35700;DHT22;21818;51.078;12.108;2023-03-29T15:48:59;16.10;60.20
35700;DHT22;21818;51.078;12.108;2023-03-29T15:51:25;16.00;60.20
35700;DHT22;21818;51.078;12.108;2023-03-29T15:53:50;16.00;60.30
35700;DHT22;21818;51.078;12.108;2023-03-29T15:56:18;15.90;60.40
35700;DHT22;21818;51.078;12.108;2023-03-29T15:58:45;15.90;60.50
35700;DHT22;21818;51.078;12.108;2023-03-29T16:04:00;15.90;61.30
35700;DHT22;21818;51.078;12.108;2023-03-29T16:06:26;15.90;61.70
35700;DHT22;21818;51.078;12.108;2023-03-29T16:08:51;15.90;61.80
35700;DHT22;21818;51.078;12.108;2023-03-29T16:11:17;15.90;61.80
35700;DHT22;21818;51.078;12.108;2023-03-29T16:13:42;15.80;61.80
35700;DHT22;21818;51.078;12.108;2023-03-29T16:16:09;15.80;61.90
35700;DHT22;21818;51.078;12.108;2023-03-29T16:18:35;15.80;61.90
35700;DHT22;21818;51.078;12.108;2023-03-29T16:21:01;15.80;62.00
35700;DHT22;21818;51.078;12.108;2023-03-29T16:23:26;15.80;62.00
35700;DHT22;21818;51.078;12.108;2023-03-29T16:25:52;15.80;62.10
35700;DHT22;21818;51.078;12.108;2023-03-29T16:28:17;15.80;62.10
35700;DHT22;21818;51.078;12.108;2023-03-29T16:30:43;15.70;62.20
35700;DHT22;21818;51.078;12.108;2023-03-29T16:33:09;15.70;62.20
35700;DHT22;21818;51.078;12.108;2023-03-29T16:35:37;15.70;62.20
35700;DHT22;21818;51.078;12.108;2023-03-29T16:38:04;15.70;62.30
35700;DHT22;21818;51.078;12.108;2023-03-29T16:40:30;15.70;62.40
35700;DHT22;21818;51.078;12.108;2023-03-29T16:42:57;15.70;62.50
35700;DHT22;21818;51.078;12.108;2023-03-29T16:45:23;15.70;62.70
35700;DHT22;21818;51.078;12.108;2023-03-29T16:47:49;15.60;62.70
35700;DHT22;21818;51.078;12.108;2023-03-29T16:50:17;15.60;62.80
35700;DHT22;21818;51.078;12.108;2023-03-29T16:52:45;15.60;62.90
35700;DHT22;21818;51.078;12.108;2023-03-29T16:55:13;15.60;63.00
35700;DHT22;21818;51.078;12.108;2023-03-29T16:57:40;15.60;63.00
35700;DHT22;21818;51.078;12.108;2023-03-29T17:00:07;15.50;63.10
35700;DHT22;21818;51.078;12.108;2023-03-29T17:02:35;15.50;63.10
35700;DHT22;21818;51.078;12.108;2023-03-29T17:05:01;15.50;63.10
35700;DHT22;21818;51.078;12.108;2023-03-29T17:07:27;15.50;63.20
35700;DHT22;21818;51.078;12.108;2023-03-29T17:09:54;15.50;63.30
35700;DHT22;21818;51.078;12.108;2023-03-29T17:12:21;15.40;63.30
35700;DHT22;21818;51.078;12.108;2023-03-29T17:14:48;15.40;63.40
35700;DHT22;21818;51.078;12.108;2023-03-29T17:17:14;15.40;63.40
35700;DHT22;21818;51.078;12.108;2023-03-29T17:19:40;15.40;63.40
35700;DHT22;21818;51.078;12.108;2023-03-29T17:22:05;15.30;63.40
35700;DHT22;21818;51.078;12.108;2023-03-29T17:24:31;15.30;63.40
35700;DHT22;21818;51.078;12.108;2023-03-29T17:26:57;15.30;63.50
35700;DHT22;21818;51.078;12.108;2023-03-29T17:29:22;15.20;63.40
35700;DHT22;21818;51.078;12.108;2023-03-29T17:31:48;15.20;63.40
35700;DHT22;21818;51.078;12.108;2023-03-29T17:34:14;15.20;63.50
35700;DHT22;21818;51.078;12.108;2023-03-29T17:36:40;15.20;63.50